Time;durP1;ratioP1;P1;durP2;ratioP2;P2;SDS_P1;SDS_P2;PMS_P1;PMS_P2;Temp;Humidity;BMP_temperature;BMP_pressure;BME280_temperature;BME280_humidity;BME280_pressure;Samples;Min_cycle;Max_cycle;Signal;HPM_P1;HPM_P2
2023/10/08 00:01:18;;;;;;;14.85;13.35;;;;;;;24.49;56.21;101832.81;5018707;28;20042;-62
2023/10/08 00:03:48;;;;;;;14.75;13.35;;;;;;;24.48;56.47;101834.66;5003780;28;20054;-62
2023/10/08 00:06:19;;;;;;;14.80;13.30;;;;;;;24.49;56.54;101824.69;5002597;28;20038;-62
2023/10/08 00:08:47;;;;;;;14.68;13.15;;;;;;;24.48;56.37;101831.94;5004043;28;20058;-61
2023/10/08 00:11:18;;;;;;;14.23;12.90;;;;;;;24.48;56.40;101833.81;5003769;28;20524;-61
2023/10/08 00:13:48;;;;;;;15.55;12.77;;;;;;;24.47;56.52;101835.66;5007167;28;20049;-61
2023/10/08 00:16:17;;;;;;;15.48;13.98;;;;;;;24.47;56.58;101834.78;5006940;28;20046;-61
2023/10/08 00:18:51;;;;;;;14.77;12.57;;;;;;;24.46;56.50;101833.94;5004199;28;20058;-61
2023/10/08 00:21:27;;;;;;;16.10;14.40;;;;;;;24.46;56.54;101833.94;5005447;28;20046;-62
2023/10/08 00:23:58;;;;;;;15.52;13.93;;;;;;;24.46;56.42;101827.66;5014350;28;20049;-62
2023/10/08 00:26:29;;;;;;;14.18;12.88;;;;;;;24.46;56.23;101833.94;5018502;28;20054;-62
2023/10/08 00:29:21;;;;;;;14.35;12.85;;;;;;;24.45;56.32;101829.53;5003419;28;20050;-61
2023/10/08 00:31:51;;;;;;;14.63;13.00;;;;;;;24.45;56.18;101832.22;5006973;28;20046;-61
2023/10/08 00:34:20;;;;;;;15.63;12.68;;;;;;;24.45;56.15;101829.53;5003781;28;20073;-61
2023/10/08 00:36:48;;;;;;;14.13;12.70;;;;;;;24.45;56.09;101828.66;5003397;28;20374;-61
2023/10/08 00:39:22;;;;;;;16.02;13.90;;;;;;;24.44;56.11;101825.09;5007103;28;20049;-61
2023/10/08 00:42:04;;;;;;;15.70;13.77;;;;;;;24.44;56.39;101818.84;5006334;28;20396;-62
2023/10/08 00:44:35;;;;;;;15.43;13.82;;;;;;;24.43;56.27;101818.00;5008207;28;20061;-62
2023/10/08 00:47:04;;;;;;;15.18;13.52;;;;;;;24.44;56.42;101818.84;5012693;28;20413;-62
2023/10/08 00:57:29;;;;;;;14.40;12.90;;;;;;;24.42;56.03;101806.28;5006536;28;20050;-62
2023/10/08 00:59:58;;;;;;;14.63;13.13;;;;;;;24.42;56.45;101810.84;5002188;28;20054;-62
2023/10/08 01:02:42;;;;;;;14.35;12.85;;;;;;;24.42;56.12;101808.13;5002049;28;20050;-62
2023/10/08 01:05:12;;;;;;;14.10;12.77;;;;;;;24.43;56.30;101809.88;5006445;28;20046;-62
2023/10/08 01:07:44;;;;;;;14.35;12.95;;;;;;;24.42;56.44;101810.84;5011109;28;20054;-62
2023/10/08 01:10:13;;;;;;;14.20;12.70;;;;;;;24.42;56.49;101813.56;5018194;28;20069;-61
2023/10/08 01:12:54;;;;;;;16.25;14.60;;;;;;;24.42;56.43;101817.13;5001075;28;20046;-61
2023/10/08 01:15:28;;;;;;;14.95;12.63;;;;;;;24.42;56.40;101816.25;5002569;28;20404;-61
2023/10/08 01:18:00;;;;;;;14.13;12.73;;;;;;;24.41;56.35;101804.59;5003117;28;20059;-61
2023/10/08 01:20:34;;;;;;;15.05;13.55;;;;;;;24.40;56.47;101813.72;5011820;28;20061;-61
2023/10/08 01:23:22;;;;;;;14.52;12.38;;;;;;;24.41;56.49;101815.41;5006114;28;20492;-61
2023/10/08 01:25:57;;;;;;;13.88;12.43;;;;;;;24.40;56.11;101821.81;5011022;28;20046;-61
2023/10/08 01:28:29;;;;;;;14.00;12.63;;;;;;;24.41;56.51;101825.38;5016051;28;20049;-61
2023/10/08 01:31:03;;;;;;;15.27;13.07;;;;;;;24.40;56.36;101824.53;5005563;28;20058;-61
2023/10/08 01:33:32;;;;;;;15.40;13.90;;;;;;;24.40;56.30;101823.69;5008822;28;20489;-62
2023/10/08 01:36:04;;;;;;;14.88;13.48;;;;;;;24.40;56.50;101823.69;4998283;28;20050;-62
2023/10/08 01:38:34;;;;;;;16.73;14.00;;;;;;;24.41;56.23;101819.97;5004930;28;20050;-62
2023/10/08 01:41:18;;;;;;;15.00;13.45;;;;;;;24.40;56.36;101815.56;5004249;28;20061;-61
2023/10/08 01:43:46;;;;;;;;;;;;;;;24.39;56.24;101816.56;5006716;28;20057;-61
2023/10/08 01:46:15;;;;;;;15.65;14.10;;;;;;;24.39;56.25;101805.75;5006190;28;19944;-61
2023/10/08 01:48:44;;;;;;;13.90;12.50;;;;;;;24.39;56.01;101805.75;5011952;28;20503;-61
2023/10/08 01:51:25;;;;;;;14.60;13.10;;;;;;;24.39;55.95;101808.44;5002162;28;20412;-61
2023/10/08 01:53:55;;;;;;;14.32;12.75;;;;;;;24.40;55.97;101802.03;5005251;28;20053;-61
2023/10/08 01:56:23;;;;;;;14.02;12.55;;;;;;;24.38;56.15;101802.16;5005695;28;20062;-61
2023/10/08 01:58:51;;;;;;;13.52;12.05;;;;;;;24.40;56.42;101799.31;4990680;28;20050;-61
2023/10/08 02:01:22;;;;;;;14.73;13.32;;;;;;;24.39;56.23;101794.91;5015902;28;20404;-62
2023/10/08 02:03:49;;;;;;;13.65;12.25;;;;;;;24.40;55.99;101796.63;5004101;28;20050;-62
2023/10/08 02:06:20;;;;;;;13.60;12.20;;;;;;;24.38;56.12;101791.31;5008006;28;20050;-60
2023/10/08 02:08:48;;;;;;;15.45;13.88;;;;;;;24.39;56.29;101795.78;5015342;28;20056;-62
2023/10/08 02:11:17;;;;;;;14.98;13.55;;;;;;;24.38;56.26;101793.19;5009293;28;20047;-62
2023/10/08 02:13:46;;;;;;;14.02;12.55;;;;;;;24.38;56.00;101785.91;5015135;28;20049;-62
2023/10/08 02:16:18;;;;;;;14.63;13.13;;;;;;;24.38;56.13;101794.03;5009072;28;20049;-62
2023/10/08 02:18:46;;;;;;;14.03;12.17;;;;;;;24.39;55.94;101794.91;5010590;28;20053;-61
2023/10/08 02:21:17;;;;;;;13.95;12.55;;;;;;;24.38;56.24;101785.06;5008976;28;20058;-61
2023/10/08 02:23:45;;;;;;;15.13;13.52;;;;;;;24.38;56.16;101779.66;5016520;28;20041;-61
2023/10/08 02:26:14;;;;;;;13.95;12.55;;;;;;;24.38;56.06;101774.25;5007760;28;20050;-61
2023/10/08 02:28:42;;;;;;;15.90;12.70;;;;;;;24.38;55.96;101779.66;5020669;28;20050;-61
2023/10/08 02:31:09;;;;;;;13.35;12.05;;;;;;;24.38;56.39;101775.09;5007473;28;20053;-61
2023/10/08 02:33:37;;;;;;;14.27;12.40;;;;;;;24.38;56.28;101775.09;5009145;28;20389;-61
2023/10/08 02:36:05;;;;;;;14.82;13.30;;;;;;;24.38;56.26;101776.94;5007186;28;20041;-62
2023/10/08 02:38:37;;;;;;;14.43;12.98;;;;;;;24.38;55.99;101776.94;5010800;28;20050;-61
2023/10/08 02:41:06;;;;;;;14.32;12.82;;;;;;;24.37;56.08;101778.78;5019027;28;20054;-62
2023/10/08 02:43:36;;;;;;;13.57;12.27;;;;;;;24.38;55.99;101776.94;5000832;28;20053;-62
2023/10/08 02:46:06;;;;;;;13.98;12.57;;;;;;;24.37;56.06;101778.78;5003809;28;20512;-62
2023/10/08 02:48:35;;;;;;;14.13;12.63;;;;;;;24.38;56.09;101776.94;5020408;28;20054;-62
2023/10/08 02:51:13;;;;;;;13.30;12.00;;;;;;;24.37;55.85;101773.34;5003369;28;20076;-61
2023/10/08 02:53:42;;;;;;;14.05;12.68;;;;;;;24.36;55.93;101770.81;5008154;28;20050;-60
2023/10/08 02:56:13;;;;;;;14.65;13.18;;;;;;;24.37;56.09;101770.66;5005135;28;20049;-60
2023/10/08 02:58:43;;;;;;;13.88;12.40;;;;;;;24.36;56.02;101773.50;5029896;28;20054;-61
2023/10/08 03:01:14;;;;;;;14.32;12.82;;;;;;;24.36;55.98;101768.09;5007217;28;20065;-62
2023/10/08 03:03:42;;;;;;;14.90;13.40;;;;;;;24.36;56.06;101762.69;5013478;28;20038;-62
2023/10/08 03:06:11;;;;;;;14.00;12.60;;;;;;;24.36;56.05;101757.28;5006694;28;20054;-61
2023/10/08 03:08:41;;;;;;;14.10;12.70;;;;;;;24.36;56.20;101768.94;4994320;28;20061;-61
2023/10/08 03:11:16;;;;;;;14.35;12.88;;;;;;;24.36;55.95;101770.81;5002872;28;20046;-62
2023/10/08 03:13:51;;;;;;;13.85;12.50;;;;;;;24.36;55.94;101771.66;5003485;28;20054;-62
2023/10/08 03:16:27;;;;;;;14.60;13.05;;;;;;;24.35;55.93;101779.94;4999997;28;20061;-62
2023/10/08 03:18:57;;;;;;;13.63;12.25;;;;;;;24.36;56.11;101773.50;5014079;28;20068;-61
2023/10/08 03:24:12;;;;;;;14.43;12.95;;;;;;;24.35;56.31;101759.13;5006563;28;20057;-61
2023/10/08 03:26:40;;;;;;;13.63;12.23;;;;;;;24.36;55.91;101768.09;5008365;28;20050;-61
2023/10/08 03:29:09;;;;;;;13.98;12.65;;;;;;;24.36;56.13;101770.81;5005717;28;20072;-61
2023/10/08 03:34:20;;;;;;;14.93;13.32;;;;;;;24.34;56.18;101770.91;5031242;28;20049;-61
2023/10/08 03:36:49;;;;;;;14.27;12.85;;;;;;;24.34;55.88;101773.63;5008053;28;20053;-61
2023/10/08 03:39:18;;;;;;;13.38;12.10;;;;;;;24.36;56.28;101770.81;5004383;28;20042;-61
2023/10/08 03:42:05;;;;;;;13.63;12.27;;;;;;;24.35;56.22;101766.41;5012064;28;20046;-62
2023/10/08 03:44:37;;;;;;;14.18;12.77;;;;;;;24.34;56.01;101770.91;5015023;28;20050;-61
2023/10/08 03:47:10;;;;;;;14.60;13.10;;;;;;;24.34;55.81;101768.22;5004626;28;20497;-61
2023/10/08 03:49:45;;;;;;;13.45;12.07;;;;;;;24.34;56.04;101775.50;5005367;28;20069;-61
2023/10/08 03:52:13;;;;;;;14.35;12.95;;;;;;;24.34;56.21;101768.22;5008409;28;20076;-61
2023/10/08 03:54:48;;;;;;;14.43;12.32;;;;;;;24.35;55.99;101766.41;4998592;28;20057;-61
2023/10/08 03:57:25;;;;;;;14.48;12.70;;;;;;;24.34;56.14;101762.81;5003783;28;20061;-61
2023/10/08 03:59:58;;;;;;;14.07;12.57;;;;;;;24.35;55.92;101766.41;5002526;28;20049;-61
2023/10/08 04:02:46;;;;;;;13.10;11.70;;;;;;;24.34;55.83;101764.66;5007283;28;20099;-61
2023/10/08 04:05:21;;;;;;;13.32;12.02;;;;;;;24.34;55.87;101759.25;5003650;28;20627;-61
2023/10/08 04:13:09;;;;;;;13.90;12.50;;;;;;;24.34;56.00;101765.50;5003677;28;20057;-62
2023/10/08 04:15:40;;;;;;;14.20;12.75;;;;;;;24.34;56.00;101756.53;5006269;28;20404;-62
2023/10/08 04:18:10;;;;;;;14.85;12.60;;;;;;;24.34;55.78;101765.50;5014484;28;20050;-62
2023/10/08 04:23:13;;;;;;;14.10;12.60;;;;;;;24.34;56.17;101759.25;5011515;28;20042;-61
2023/10/08 04:25:42;;;;;;;13.38;12.00;;;;;;;24.33;56.17;101755.69;5013291;28;20050;-61
2023/10/08 04:28:17;;;;;;;13.25;11.98;;;;;;;24.33;56.06;101761.09;5005424;28;20050;-61
2023/10/08 04:30:45;;;;;;;14.48;13.05;;;;;;;24.32;55.74;101753.13;5010000;28;20049;-61
2023/10/08 04:33:12;;;;;;;13.40;12.15;;;;;;;24.33;56.04;101757.53;5007020;28;20042;-61
2023/10/08 04:35:51;;;;;;;13.80;12.43;;;;;;;24.32;55.76;101759.41;5014305;28;20491;-61
2023/10/08 04:38:22;;;;;;;13.52;12.20;;;;;;;24.32;55.98;101755.84;5003260;28;20050;-61
2023/10/08 04:40:53;;;;;;;13.98;12.55;;;;;;;24.32;56.07;101761.25;5004416;28;20400;-61
2023/10/08 04:43:25;;;;;;;15.05;11.68;;;;;;;24.32;55.84;101763.97;5006754;28;20053;-61
2023/10/08 04:46:04;;;;;;;13.13;11.73;;;;;;;24.31;56.09;101752.28;5010240;28;20041;-61
2023/10/08 04:48:32;;;;;;;12.50;11.30;;;;;;;24.31;56.08;101748.72;5002895;28;20051;-62
2023/10/08 04:51:01;;;;;;;13.77;12.35;;;;;;;24.31;55.94;101744.16;5006747;28;20058;-61
2023/10/08 04:53:36;;;;;;;14.57;12.18;;;;;;;24.31;56.12;101748.72;5014100;28;20038;-61
2023/10/08 04:56:16;;;;;;;13.75;12.35;;;;;;;24.31;55.87;101737.91;5002894;28;20050;-56
2023/10/08 04:58:47;;;;;;;15.38;13.77;;;;;;;24.28;55.16;101740.91;5013282;28;20049;-59
2023/10/08 05:01:29;;;;;;;16.58;14.88;;;;;;;24.22;54.58;101745.00;5006321;28;20049;-56
2023/10/08 05:17:09;;;;;;;17.77;15.98;;;;;;;23.83;54.48;101747.69;5006449;28;20049;-60
2023/10/08 05:25:24;;;;;;;18.38;16.48;;;;;;;23.71;54.46;101758.75;5011690;28;20054;-60
2023/10/08 05:30:31;;;;;;;19.60;17.50;;;;;;;23.66;54.24;101760.03;5008170;28;20053;-60
2023/10/08 05:49:15;;;;;;;18.83;16.83;;;;;;;23.54;53.67;101774.59;5008725;28;20057;-60
2023/10/08 06:00:17;;;;;;;17.63;15.80;;;;;;;23.48;53.96;101777.00;5016105;28;20057;-60
2023/10/08 06:13:15;;;;;;;18.02;16.10;;;;;;;23.44;54.14;101803.44;5005933;28;20050;-56
2023/10/08 06:15:48;;;;;;;16.40;14.80;;;;;;;23.42;54.22;101803.56;5005225;28;20046;-60
2023/10/08 06:18:18;;;;;;;;;;;;;;;23.42;54.21;101805.44;5006051;28;20046;-60
2023/10/08 06:20:46;;;;;;;18.23;15.75;;;;;;;23.42;54.41;101806.28;5005579;28;19929;-56
2023/10/08 06:23:18;;;;;;;18.15;16.35;;;;;;;23.43;54.18;101807.97;5007927;28;20077;-56
2023/10/08 06:25:47;;;;;;;17.33;15.57;;;;;;;23.44;54.45;101814.25;5007539;28;20428;-56
2023/10/08 06:28:19;;;;;;;16.45;14.68;;;;;;;23.45;54.28;101810.53;5009029;28;20072;-56
2023/10/08 06:30:48;;;;;;;17.42;15.63;;;;;;;23.47;54.39;101811.28;5010006;28;20050;-56
2023/10/08 06:33:16;;;;;;;18.17;16.15;;;;;;;23.49;54.64;101811.13;5000974;28;20041;-56
2023/10/08 06:35:44;;;;;;;16.75;15.05;;;;;;;23.53;54.74;101810.72;5015282;28;20076;-56
2023/10/08 06:38:14;;;;;;;17.25;15.43;;;;;;;23.56;54.54;101806.91;5005780;28;20053;-56
2023/10/08 06:40:42;;;;;;;17.52;15.73;;;;;;;23.59;54.63;101812.88;5005858;28;20122;-56
2023/10/08 06:43:46;;;;;;;17.85;15.95;;;;;;;23.61;54.69;101810.88;5008320;28;20061;-56
2023/10/08 06:46:07;;;;;;;18.13;16.23;;;;;;;23.64;54.65;101804.38;5004469;28;20417;-56
2023/10/08 06:48:34;;;;;;;17.30;15.50;;;;;;;23.66;54.77;101814.09;5005858;28;20057;-56
2023/10/08 06:51:13;;;;;;;17.48;15.65;;;;;;;23.69;54.80;101818.34;5016255;28;20050;-56
2023/10/08 06:53:41;;;;;;;16.88;15.07;;;;;;;23.73;54.46;101813.53;5000758;28;20057;-56
2023/10/08 06:56:12;;;;;;;16.38;14.77;;;;;;;23.75;54.35;101812.41;5010860;28;20436;-56
2023/10/08 06:58:45;;;;;;;17.92;16.05;;;;;;;23.78;54.27;101817.56;5014654;28;20079;-56
2023/10/08 07:01:13;;;;;;;16.63;14.90;;;;;;;23.80;54.47;101810.16;5009083;28;20053;-56
2023/10/08 07:03:40;;;;;;;16.67;14.98;;;;;;;23.84;54.14;101813.44;5013211;28;20053;-56
2023/10/08 07:06:25;;;;;;;15.77;13.93;;;;;;;23.86;54.38;101814.13;5004901;28;20042;-56
2023/10/08 07:08:55;;;;;;;15.43;13.82;;;;;;;23.88;54.18;101821.13;5009546;28;20392;-60
2023/10/08 07:11:23;;;;;;;15.05;13.55;;;;;;;23.92;54.17;101819.00;5007200;28;20050;-60
2023/10/08 07:13:51;;;;;;;14.57;13.10;;;;;;;23.94;54.55;101822.41;5004535;28;20110;-60
2023/10/08 07:16:20;;;;;;;14.85;13.32;;;;;;;23.95;54.61;101829.56;5006824;28;20057;-56
2023/10/08 07:18:51;;;;;;;15.45;13.85;;;;;;;23.98;54.09;101826.56;5008583;28;20057;-60
2023/10/08 07:21:23;;;;;;;14.80;13.32;;;;;;;23.99;53.85;101822.88;5013310;28;20049;-60
2023/10/08 07:23:59;;;;;;;14.40;13.00;;;;;;;24.00;54.15;101827.28;5004852;28;20058;-60
2023/10/08 07:26:35;;;;;;;15.77;14.10;;;;;;;24.00;54.09;101821.88;5009668;28;20393;-60
2023/10/08 07:29:11;;;;;;;14.73;13.23;;;;;;;24.00;53.71;101827.28;5014105;28;20046;-56
2023/10/08 07:31:43;;;;;;;15.32;13.73;;;;;;;24.01;53.82;101823.56;5004423;28;20520;-56
2023/10/08 07:34:17;;;;;;;15.35;13.85;;;;;;;24.01;53.94;101834.41;5008111;28;20050;-55
2023/10/08 07:36:49;;;;;;;15.55;14.02;;;;;;;24.01;54.09;101834.41;5007801;28;20045;-56
2023/10/08 07:41:54;;;;;;;14.73;13.32;;;;;;;24.02;53.86;101830.69;5006534;28;20042;-56
2023/10/08 07:44:23;;;;;;;15.15;13.65;;;;;;;24.03;53.90;101831.56;5007894;28;20037;-56
2023/10/08 07:46:54;;;;;;;15.40;13.80;;;;;;;24.03;53.82;101834.28;5005877;28;20046;-55
2023/10/08 07:49:25;;;;;;;14.27;12.77;;;;;;;24.03;54.21;101829.72;5004271;28;20054;-60
2023/10/08 07:51:54;;;;;;;15.00;13.50;;;;;;;24.01;54.07;101834.41;5015000;28;20042;-60
2023/10/08 07:54:24;;;;;;;15.13;13.55;;;;;;;24.01;53.63;101834.41;5007283;28;20072;-60
2023/10/08 07:56:51;;;;;;;15.90;14.20;;;;;;;24.02;54.18;101824.44;5003673;28;20404;-60
2023/10/08 07:59:22;;;;;;;15.05;13.52;;;;;;;24.03;53.97;101827.00;5011009;28;20400;-56
2023/10/08 08:01:52;;;;;;;15.45;13.48;;;;;;;24.02;54.09;101829.84;5007616;28;20049;-56
2023/10/08 08:04:22;;;;;;;15.07;13.15;;;;;;;24.02;54.14;101827.97;5014621;28;20053;-55
2023/10/08 08:06:51;;;;;;;14.50;12.73;;;;;;;24.03;54.56;101836.97;5004030;28;20050;-56
2023/10/08 08:09:19;;;;;;;14.60;13.07;;;;;;;24.02;54.52;101830.69;5005251;28;20397;-55
2023/10/08 08:11:47;;;;;;;14.10;12.70;;;;;;;24.02;54.14;101822.56;5007623;28;20057;-56
2023/10/08 08:14:24;;;;;;;14.70;13.20;;;;;;;24.01;54.15;101833.53;5006701;28;20534;-55
2023/10/08 08:16:52;;;;;;;15.15;13.57;;;;;;;23.99;54.07;101825.59;5003593;28;20053;-55
2023/10/08 08:19:25;;;;;;;14.93;13.32;;;;;;;24.01;54.03;101825.44;5006258;28;20523;-60
2023/10/08 08:21:52;;;;;;;15.07;13.57;;;;;;;24.01;53.82;101820.88;5007299;28;20511;-55
2023/10/08 08:24:28;;;;;;;13.63;12.32;;;;;;;24.05;53.84;101832.28;5004108;28;20058;-54
2023/10/08 08:27:10;;;;;;;15.05;13.38;;;;;;;24.07;54.02;101823.03;5004081;28;20061;-56
2023/10/08 08:29:44;;;;;;;14.15;12.68;;;;;;;24.09;54.27;101821.03;5006910;28;20049;-60
2023/10/08 08:32:21;;;;;;;15.88;14.23;;;;;;;24.09;54.21;101820.19;5004010;28;20065;-60
2023/10/08 08:34:52;;;;;;;15.95;14.32;;;;;;;24.08;54.53;101816.63;5004106;28;20409;-60
2023/10/08 08:37:26;;;;;;;14.95;13.45;;;;;;;24.08;54.14;101816.63;5007237;28;20053;-60
2023/10/08 08:39:57;;;;;;;15.85;14.23;;;;;;;24.08;54.49;101819.31;5010613;28;20483;-59
2023/10/08 08:42:27;;;;;;;14.98;13.48;;;;;;;24.11;54.73;101820.91;5003327;28;20054;-60
2023/10/08 08:44:56;;;;;;;16.17;13.68;;;;;;;24.15;54.56;101825.91;5011746;28;20050;-60
2023/10/08 08:47:28;;;;;;;16.98;15.27;;;;;;;24.10;55.04;101817.31;5006939;28;20049;-60
2023/10/08 08:50:00;;;;;;;16.10;14.50;;;;;;;24.09;54.78;101810.22;5003777;28;20046;-56
2023/10/08 08:52:27;;;;;;;15.45;13.88;;;;;;;24.08;55.00;101813.91;5003728;28;20065;-55
2023/10/08 08:54:55;;;;;;;16.58;14.88;;;;;;;24.07;54.66;101811.38;5006021;28;20046;-56
2023/10/08 08:57:23;;;;;;;16.05;13.95;;;;;;;24.07;54.54;101808.66;5010833;28;20523;-55
2023/10/08 08:59:55;;;;;;;15.70;14.10;;;;;;;24.08;54.91;101802.25;5004116;28;20477;-60
2023/10/08 09:02:25;;;;;;;15.07;13.55;;;;;;;24.07;54.91;101814.91;5010092;28;20057;-59
2023/10/08 09:04:53;;;;;;;17.52;15.30;;;;;;;24.04;54.82;101807.06;5004404;28;20469;-64
2023/10/08 09:07:23;;;;;;;15.52;13.93;;;;;;;24.06;54.64;101804.22;5004899;28;20160;-58
2023/10/08 09:09:57;;;;;;;14.35;12.88;;;;;;;24.05;54.72;101795.25;5007168;28;20060;-60
2023/10/08 09:12:26;;;;;;;13.27;11.90;;;;;;;24.04;54.68;101796.25;5004958;28;20045;-59
2023/10/08 09:15:02;;;;;;;13.85;11.95;;;;;;;24.04;54.66;101795.41;5005216;28;20046;-60
2023/10/08 09:17:29;;;;;;;14.18;12.70;;;;;;;24.05;54.48;101797.97;5013270;28;20053;-59
2023/10/08 09:19:59;;;;;;;14.88;13.30;;;;;;;24.05;54.58;101803.38;5007191;28;20694;-58
2023/10/08 09:22:28;;;;;;;15.00;13.43;;;;;;;24.04;54.35;101801.66;5005362;28;20050;-58
2023/10/08 09:24:55;;;;;;;15.25;12.90;;;;;;;24.05;54.37;101805.22;5006652;28;20050;-58
2023/10/08 09:27:26;;;;;;;16.40;14.32;;;;;;;24.04;54.04;101798.97;5012975;28;20045;-58
2023/10/08 09:29:55;;;;;;;15.18;13.65;;;;;;;24.06;54.31;101801.50;5007082;28;20523;-59
2023/10/08 09:32:25;;;;;;;18.50;14.13;;;;;;;24.08;53.82;101796.84;5003974;28;20069;-59
2023/10/08 09:34:53;;;;;;;16.52;14.73;;;;;;;24.08;54.06;101797.69;5007490;28;20045;-59
2023/10/08 09:37:22;;;;;;;15.45;13.85;;;;;;;24.11;53.92;101789.31;5007872;28;20050;-59
2023/10/08 09:39:52;;;;;;;16.52;13.82;;;;;;;24.13;53.76;101784.59;5005926;28;20052;-58
2023/10/08 09:42:22;;;;;;;15.00;13.43;;;;;;;24.15;54.04;101792.59;5003737;28;20420;-58
2023/10/08 09:44:50;;;;;;;16.05;14.35;;;;;;;24.16;54.02;101776.19;5007565;28;20042;-59
2023/10/08 09:47:24;;;;;;;17.30;15.50;;;;;;;24.19;53.72;101777.78;5007344;28;20042;-58
2023/10/08 09:50:21;;;;;;;16.25;14.55;;;;;;;24.21;53.89;101767.66;5003739;28;20496;-58
2023/10/08 09:53:19;;;;;;;16.23;14.45;;;;;;;24.24;53.92;101775.50;5012787;28;20408;-58
2023/10/08 09:55:56;;;;;;;17.98;16.08;;;;;;;24.26;54.23;101769.94;5006960;28;20050;-59
2023/10/08 09:58:27;;;;;;;17.20;15.38;;;;;;;24.28;55.05;101765.25;5006483;28;20050;-61
2023/10/08 10:00:57;;;;;;;16.50;14.55;;;;;;;24.28;54.89;101766.09;5006894;28;20056;-67
2023/10/08 10:03:26;;;;;;;20.58;17.13;;;;;;;24.30;55.29;101776.78;5005329;28;20057;-67
2023/10/08 10:05:58;;;;;;;17.25;15.57;;;;;;;24.31;54.70;101768.53;5003792;28;20053;-67
2023/10/08 10:08:28;;;;;;;18.77;16.63;;;;;;;24.34;54.42;101775.50;5005822;28;20046;-67
2023/10/08 10:10:59;;;;;;;18.02;16.05;;;;;;;24.35;53.97;101772.66;5010608;28;20049;-67
2023/10/08 10:13:28;;;;;;;17.40;15.40;;;;;;;24.36;54.08;101771.66;5012307;28;20050;-67
2023/10/08 10:15:58;;;;;;;18.30;16.35;;;;;;;24.37;54.05;101772.50;5011505;28;20046;-67
2023/10/08 10:18:31;;;;;;;18.02;15.80;;;;;;;24.38;53.65;101774.25;5012668;28;20057;-67
2023/10/08 10:21:20;;;;;;;17.73;14.57;;;;;;;24.39;53.92;101766.00;5016023;28;20373;-67
2023/10/08 10:23:50;;;;;;;16.25;14.55;;;;;;;24.39;53.64;101768.69;5016421;28;20489;-67
2023/10/08 10:26:27;;;;;;;16.90;14.90;;;;;;;24.40;53.46;101764.13;5015717;28;20053;-67
2023/10/08 10:29:10;;;;;;;17.15;14.88;;;;;;;24.41;53.87;101763.13;5016144;28;20049;-63
2023/10/08 10:31:40;;;;;;;16.15;14.45;;;;;;;24.41;54.12;101763.13;5015864;28;20056;-63
2023/10/08 10:34:08;;;;;;;18.20;16.23;;;;;;;24.42;53.77;101764.84;5015615;28;20523;-62
2023/10/08 10:36:37;;;;;;;15.50;13.93;;;;;;;24.42;54.05;101765.69;5015667;28;20460;-67
2023/10/08 10:39:16;;;;;;;17.25;15.55;;;;;;;24.42;53.64;101752.16;5010363;28;20046;-63
2023/10/08 10:41:48;;;;;;;16.95;14.90;;;;;;;24.45;53.68;101751.03;4994176;28;20050;-63
2023/10/08 10:44:15;;;;;;;16.38;14.65;;;;;;;24.45;53.30;101745.59;5009911;28;20050;-62
2023/10/08 10:46:50;;;;;;;14.95;13.32;;;;;;;24.47;53.17;101742.75;5015784;28;20054;-63
2023/10/08 10:49:21;;;;;;;14.50;13.00;;;;;;;24.47;52.91;101743.63;5015374;28;20049;-67
2023/10/08 10:51:57;;;;;;;15.18;12.85;;;;;;;24.48;52.70;101737.22;5013909;28;20058;-67
2023/10/08 10:54:25;;;;;;;13.90;12.52;;;;;;;24.49;53.01;101738.91;5014948;28;20052;-67
2023/10/08 10:57:17;;;;;;;13.40;11.88;;;;;;;24.49;52.79;101733.50;5015178;28;20054;-67
2023/10/08 10:59:53;;;;;;;13.07;11.70;;;;;;;24.50;53.07;101737.91;5007468;28;20046;-67
2023/10/08 11:02:30;;;;;;;15.10;11.90;;;;;;;24.50;52.54;101727.06;5015080;28;20310;-67
2023/10/08 11:05:19;;;;;;;15.15;11.82;;;;;;;24.50;52.63;101716.25;5015188;28;20073;-67
2023/10/08 11:07:48;;;;;;;15.38;12.48;;;;;;;24.51;52.18;101717.97;5014677;28;20065;-67
2023/10/08 11:10:16;;;;;;;13.25;11.15;;;;;;;24.50;52.47;101718.97;5007088;28;20105;-63
2023/10/08 11:12:44;;;;;;;13.00;11.57;;;;;;;24.51;52.04;101709.88;5006025;28;20050;-63
2023/10/08 11:15:15;;;;;;;14.40;11.75;;;;;;;24.52;51.91;101699.88;4999208;28;20057;-63
2023/10/08 11:17:44;;;;;;;12.80;11.43;;;;;;;24.52;51.78;101698.03;5009724;28;20484;-63
2023/10/08 11:20:32;;;;;;;11.85;10.30;;;;;;;24.51;51.71;101700.84;5011554;28;20440;-63
2023/10/08 11:23:17;;;;;;;12.65;10.98;;;;;;;24.53;51.78;101694.31;5014050;28;20050;-64
2023/10/08 11:25:59;;;;;;;13.13;10.07;;;;;;;24.53;51.78;101699.72;5009301;28;20054;-61
2023/10/08 11:28:27;;;;;;;11.23;10.07;;;;;;;24.54;51.50;101687.88;5005847;28;20055;-59
2023/10/08 11:30:59;;;;;;;14.98;10.50;;;;;;;24.55;51.66;101686.91;5009567;28;20050;-59
2023/10/08 11:33:28;;;;;;;15.55;9.93;;;;;;;24.55;51.36;101684.22;5009232;28;20050;-58
2023/10/08 11:36:02;;;;;;;12.57;9.77;;;;;;;24.57;51.13;101686.75;5006483;28;20411;-59
2023/10/08 11:38:42;;;;;;;12.15;9.52;;;;;;;24.56;50.85;101676.94;5007307;28;20388;-58
2023/10/08 11:41:22;;;;;;;10.48;8.82;;;;;;;24.56;51.03;101683.19;5008992;28;20521;-59
2023/10/08 11:43:59;;;;;;;11.70;9.40;;;;;;;24.56;50.61;101683.19;5006582;28;20045;-58
2023/10/08 11:46:38;;;;;;;12.20;9.40;;;;;;;24.55;50.76;101667.97;5007605;28;20042;-59
2023/10/08 11:49:06;;;;;;;12.18;9.00;;;;;;;24.57;51.23;101668.66;5009170;28;20053;-62
2023/10/08 11:51:36;;;;;;;11.15;9.18;;;;;;;24.59;51.06;101666.66;5005865;28;20046;-64
2023/10/08 11:54:11;;;;;;;11.07;9.35;;;;;;;24.60;51.51;101672.94;5007440;28;20050;-64
2023/10/08 11:56:39;;;;;;;12.85;9.40;;;;;;;24.60;51.49;101664.81;5009248;28;20365;-60
2023/10/08 11:59:11;;;;;;;11.02;9.32;;;;;;;24.61;51.56;101663.81;5009798;28;20484;-60
2023/10/08 12:01:42;;;;;;;11.43;9.50;;;;;;;24.60;51.49;101654.84;5005449;28;20050;-61
2023/10/08 12:04:15;;;;;;;12.27;9.85;;;;;;;24.61;51.70;101653.81;5007640;28;20050;-61
2023/10/08 12:06:46;;;;;;;10.82;9.18;;;;;;;24.61;51.78;101650.28;5009173;28;20054;-61
2023/10/08 12:09:14;;;;;;;12.40;9.45;;;;;;;24.61;51.75;101637.59;5008406;28;20050;-58
2023/10/08 12:11:42;;;;;;;10.80;9.32;;;;;;;24.63;51.53;101632.88;5007988;28;20046;-57
2023/10/08 12:14:10;;;;;;;11.00;9.52;;;;;;;24.64;50.99;101628.31;5004208;28;20056;-58
2023/10/08 12:16:40;;;;;;;9.82;8.73;;;;;;;24.66;50.78;101624.44;5009067;28;20042;-58
2023/10/08 12:19:17;;;;;;;10.35;9.23;;;;;;;24.67;50.37;101623.47;5006789;28;20049;-58
2023/10/08 12:21:49;;;;;;;11.43;9.23;;;;;;;24.67;50.48;101609.94;5006122;28;20508;-58
2023/10/08 12:24:17;;;;;;;10.10;8.23;;;;;;;24.67;50.30;101601.81;5009026;28;20050;-58
2023/10/08 12:26:49;;;;;;;10.05;7.88;;;;;;;24.69;50.38;101607.06;5008329;28;20069;-58
2023/10/08 12:29:18;;;;;;;9.50;8.07;;;;;;;24.70;50.76;101605.19;5005219;28;20046;-58
2023/10/08 12:31:47;;;;;;;11.35;8.43;;;;;;;24.71;50.31;101604.19;5010801;28;20416;-58
2023/10/08 12:34:16;;;;;;;12.85;9.27;;;;;;;24.72;50.26;101604.06;5008757;28;20053;-58
2023/10/08 12:36:45;;;;;;;12.82;8.52;;;;;;;24.73;49.96;101597.63;5007706;28;20050;-57
2023/10/08 12:39:16;;;;;;;10.23;8.15;;;;;;;24.75;49.18;101592.91;5009669;28;20079;-61
2023/10/08 12:41:44;;;;;;;11.50;7.90;;;;;;;24.77;48.84;101593.63;5020603;28;20065;-60
2023/10/08 12:44:15;;;;;;;10.02;7.55;;;;;;;24.78;49.04;101592.63;5024365;28;20045;-60
2023/10/08 12:46:43;;;;;;;10.65;8.63;;;;;;;24.80;49.03;101597.91;5010053;28;20361;-59
2023/10/08 12:49:11;;;;;;;10.15;8.85;;;;;;;24.82;49.25;101585.06;5011911;28;20043;-59
2023/10/08 12:51:41;;;;;;;12.18;8.65;;;;;;;24.83;49.30;101592.16;5016458;28;20046;-61
2023/10/08 12:54:14;;;;;;;9.88;7.20;;;;;;;24.82;49.33;101591.31;5016442;28;20045;-60